createdAt,value
2019-05-25T00:00:20.856Z,21.56
2019-05-25T00:02:37.590Z,21.47
2019-05-25T00:04:55.420Z,21.45
2019-05-25T00:07:12.410Z,21.38
2019-05-25T00:09:29.511Z,21.37
2019-05-25T00:11:46.344Z,21.54
2019-05-25T00:14:03.291Z,21.69
2019-05-25T00:16:21.322Z,21.64
2019-05-25T00:18:38.292Z,21.59
2019-05-25T00:20:55.073Z,21.63
2019-05-25T00:23:11.845Z,21.40
2019-05-25T00:25:28.301Z,21.11
2019-05-25T00:27:45.254Z,21.32
2019-05-25T00:30:02.253Z,20.98
2019-05-25T00:32:20.305Z,20.82
2019-05-25T00:34:37.457Z,21.19
2019-05-25T00:36:54.411Z,21.69
2019-05-25T00:39:11.310Z,21.51
2019-05-25T00:41:28.280Z,21.65
2019-05-25T00:43:45.264Z,21.69
2019-05-25T00:46:02.342Z,21.55
2019-05-25T00:48:19.260Z,21.51
2019-05-25T00:50:36.251Z,21.66
2019-05-25T00:52:53.247Z,21.60
2019-05-25T00:55:10.311Z,21.60
2019-05-25T00:57:27.248Z,21.69
2019-05-25T00:59:44.621Z,21.47
2019-05-25T01:02:02.567Z,21.45
2019-05-25T01:04:19.249Z,21.40
2019-05-25T01:06:36.253Z,21.07
2019-05-25T01:08:53.360Z,21.06
2019-05-25T01:11:10.485Z,21.39
2019-05-25T01:13:27.361Z,21.50
2019-05-25T01:15:44.254Z,21.58
2019-05-25T01:18:01.278Z,19.70
2019-05-25T01:20:18.242Z,20.94
2019-05-25T01:22:35.441Z,21.47
2019-05-25T01:24:52.432Z,21.62
2019-05-25T01:27:09.486Z,21.79
2019-05-25T01:29:26.456Z,20.65
2019-05-25T01:31:43.257Z,21.60
2019-05-25T01:34:00.251Z,21.76
2019-05-25T01:36:17.256Z,21.85
2019-05-25T01:38:34.257Z,21.76
2019-05-25T01:40:51.257Z,21.72
2019-05-25T01:43:07.998Z,21.78
2019-05-25T01:45:24.664Z,21.84
2019-05-25T01:47:41.309Z,21.38
2019-05-25T01:49:58.260Z,21.72
2019-05-25T01:52:15.068Z,22.09
2019-05-25T01:54:32.024Z,22.18
2019-05-25T01:56:48.661Z,21.92
2019-05-25T01:59:05.339Z,21.16
2019-05-25T02:01:22.240Z,22.12
2019-05-25T02:03:39.247Z,22.26
2019-05-25T02:05:56.259Z,22.31
2019-05-25T02:08:13.291Z,21.68
2019-05-25T02:10:30.444Z,20.38
2019-05-25T02:12:47.317Z,20.88
2019-05-25T02:15:04.515Z,21.86
2019-05-25T02:17:21.418Z,21.76
2019-05-25T02:19:38.278Z,21.96
2019-05-25T02:21:56.993Z,22.06
2019-05-25T02:24:13.826Z,22.13
2019-05-25T02:26:30.531Z,22.10
2019-05-25T02:28:47.293Z,21.92
2019-05-25T02:31:04.243Z,20.83
2019-05-25T02:33:21.223Z,21.33
2019-05-25T02:35:38.277Z,21.54
2019-05-25T02:37:55.240Z,21.70
2019-05-25T02:40:12.342Z,21.66
2019-05-25T02:42:29.234Z,21.56
2019-05-25T02:44:46.238Z,21.54
2019-05-25T02:47:03.366Z,21.50
2019-05-25T02:49:21.610Z,21.53
2019-05-25T02:51:38.465Z,21.36
2019-05-25T02:53:55.440Z,21.43
2019-05-25T02:56:12.426Z,21.43
2019-05-25T02:58:29.309Z,21.31
2019-05-25T03:00:46.284Z,21.22
2019-05-25T03:03:03.590Z,21.05
2019-05-25T03:05:20.272Z,21.09
2019-05-25T03:07:37.299Z,21.10
2019-05-25T03:09:54.266Z,20.91
2019-05-25T03:12:11.428Z,20.88
2019-05-25T03:14:28.254Z,20.74
2019-05-25T03:16:45.252Z,21.08
2019-05-25T03:19:02.322Z,21.18
2019-05-25T03:21:19.317Z,21.20
2019-05-25T03:23:36.329Z,21.21
2019-05-25T03:25:53.433Z,21.22
2019-05-25T03:28:11.503Z,21.38
2019-05-25T03:30:34.548Z,21.40
2019-05-25T03:32:52.686Z,21.40
2019-05-25T03:35:09.805Z,20.55
2019-05-25T03:37:26.455Z,19.87
2019-05-25T03:39:43.752Z,19.87
2019-05-25T03:42:00.947Z,20.92
2019-05-25T03:44:17.534Z,20.92
2019-05-25T03:46:34.335Z,20.86
2019-05-25T03:48:51.499Z,20.84
2019-05-25T03:51:08.298Z,20.93
2019-05-25T03:53:25.429Z,21.10
2019-05-25T03:55:42.433Z,21.20
2019-05-25T03:58:00.331Z,21.05
2019-05-25T04:00:17.793Z,20.97
2019-05-25T04:02:34.582Z,20.96
2019-05-25T04:04:51.278Z,20.96
2019-05-25T04:07:08.241Z,21.02
2019-05-25T04:09:25.235Z,21.00
2019-05-25T04:11:42.459Z,20.96
2019-05-25T04:13:59.505Z,20.98
2019-05-25T04:16:16.272Z,20.88
2019-05-25T04:18:34.551Z,20.51
2019-05-25T04:20:51.443Z,19.76
2019-05-25T04:23:08.434Z,20.44
2019-05-25T04:25:25.555Z,20.86
2019-05-25T04:27:43.818Z,20.98
2019-05-25T04:30:00.449Z,20.84
2019-05-25T04:32:17.400Z,19.85
2019-05-25T04:34:34.290Z,20.64
2019-05-25T04:36:51.245Z,21.00
2019-05-25T04:39:08.567Z,21.14
2019-05-25T04:41:25.390Z,21.14
2019-05-25T04:43:42.278Z,21.08
2019-05-25T04:45:59.451Z,21.27
2019-05-25T04:48:16.331Z,21.44
2019-05-25T04:50:33.240Z,21.21
2019-05-25T04:52:50.220Z,20.35
2019-05-25T04:55:07.275Z,21.51
2019-05-25T04:57:24.258Z,21.74
2019-05-25T04:59:41.384Z,21.84
2019-05-25T05:01:58.426Z,21.97
2019-05-25T05:04:16.668Z,22.28
2019-05-25T05:06:34.255Z,22.00
2019-05-25T05:08:51.301Z,22.11
2019-05-25T05:11:08.238Z,22.20
2019-05-25T05:13:25.478Z,21.65
2019-05-25T05:15:42.785Z,22.27
2019-05-25T05:17:59.550Z,22.73
2019-05-25T05:20:16.627Z,22.73
2019-05-25T05:22:33.425Z,22.93
2019-05-25T05:24:50.473Z,22.92
2019-05-25T05:27:07.536Z,23.02
2019-05-25T05:29:24.637Z,23.40
2019-05-25T05:31:41.808Z,23.60
2019-05-25T05:33:58.412Z,23.25
2019-05-25T05:36:15.413Z,22.92
2019-05-25T05:38:32.480Z,23.99
2019-05-25T05:40:49.386Z,24.12
2019-05-25T05:43:11.518Z,24.71
2019-05-25T05:45:28.496Z,24.98
2019-05-25T05:47:45.444Z,24.96
2019-05-25T05:50:02.319Z,25.11
2019-05-25T05:52:19.606Z,25.55
2019-05-25T05:54:36.352Z,25.62
2019-05-25T05:56:53.583Z,25.84
2019-05-25T05:59:10.472Z,25.33
2019-05-25T06:01:27.451Z,25.72
2019-05-25T06:03:44.790Z,27.10
2019-05-25T06:06:03.268Z,27.10
2019-05-25T06:08:20.288Z,26.64
2019-05-25T06:10:37.626Z,27.78
2019-05-25T06:12:55.246Z,28.31
2019-05-25T06:15:13.081Z,28.09
2019-05-25T06:17:30.102Z,28.92
2019-05-25T06:19:47.249Z,28.82
2019-05-25T06:22:04.421Z,29.60
2019-05-25T06:24:21.927Z,28.47
2019-05-25T06:26:40.853Z,28.75
2019-05-25T06:28:57.634Z,28.52
2019-05-25T06:31:14.332Z,27.60
2019-05-25T06:33:33.530Z,27.70
2019-05-25T06:35:50.565Z,27.50
2019-05-25T06:38:07.508Z,29.25
2019-05-25T06:40:24.432Z,29.28
2019-05-25T06:42:42.416Z,29.53
2019-05-25T06:44:59.469Z,27.07
2019-05-25T06:47:16.458Z,28.54
2019-05-25T06:49:33.481Z,28.73
2019-05-25T06:51:50.581Z,29.11
2019-05-25T06:54:07.324Z,28.46
2019-05-25T06:56:24.278Z,28.58
2019-05-25T06:58:41.294Z,28.84
2019-05-25T07:00:58.265Z,30.32
2019-05-25T07:03:15.266Z,31.38
2019-05-25T07:05:32.283Z,29.96
2019-05-25T07:07:49.519Z,29.69
2019-05-25T07:10:07.376Z,29.89
2019-05-25T07:12:26.004Z,30.65
2019-05-25T07:14:43.248Z,31.34
2019-05-25T07:17:00.260Z,32.90
2019-05-25T07:19:17.502Z,32.08
2019-05-25T07:21:34.470Z,32.29
2019-05-25T07:23:51.327Z,31.63
2019-05-25T07:26:08.437Z,32.74
2019-05-25T07:28:27.291Z,31.74
2019-05-25T07:30:46.571Z,30.94
2019-05-25T07:33:03.499Z,31.53
2019-05-25T07:35:20.464Z,29.91
2019-05-25T07:37:37.321Z,31.62
2019-05-25T07:39:54.510Z,33.00
2019-05-25T07:42:12.006Z,33.41
2019-05-25T07:44:28.819Z,31.86
2019-05-25T07:46:46.096Z,31.17
2019-05-25T07:49:03.308Z,32.89
2019-05-25T07:51:20.869Z,29.66
2019-05-25T07:53:37.651Z,31.39
2019-05-25T07:55:54.358Z,31.19
2019-05-25T07:58:17.242Z,30.75
2019-05-25T08:13:29.251Z,30.69
2019-05-25T08:15:46.424Z,30.66
2019-05-25T08:18:03.587Z,28.50
2019-05-25T08:20:20.582Z,27.18
2019-05-25T08:22:37.319Z,28.97
2019-05-25T08:24:54.486Z,28.57
2019-05-25T08:27:11.478Z,27.46
2019-05-25T08:29:28.338Z,29.31
2019-05-25T08:31:45.289Z,27.67
2019-05-25T08:34:02.257Z,28.24
2019-05-25T08:36:19.273Z,29.35
2019-05-25T08:38:36.261Z,28.84
2019-05-25T08:40:53.357Z,28.55
2019-05-25T08:43:10.610Z,28.00
2019-05-25T08:45:27.477Z,28.70
2019-05-25T08:47:44.453Z,27.21
2019-05-25T08:50:01.533Z,30.27
2019-05-25T08:52:18.501Z,28.55
2019-05-25T08:54:35.384Z,28.13
2019-05-25T08:56:52.373Z,29.88
2019-05-25T08:59:09.418Z,28.83
2019-05-25T09:01:26.667Z,30.04
2019-05-25T09:03:43.442Z,29.53
2019-05-25T09:06:00.597Z,28.10
2019-05-25T09:08:18.389Z,26.65
2019-05-25T09:10:35.837Z,27.91
2019-05-25T09:12:52.610Z,27.26
2019-05-25T09:15:09.496Z,27.40
2019-05-25T09:17:26.981Z,27.11
2019-05-25T09:19:44.311Z,28.83
2019-05-25T09:22:03.595Z,28.38
2019-05-25T09:24:20.442Z,31.45
2019-05-25T09:26:37.501Z,28.25
2019-05-25T09:29:04.091Z,28.59
2019-05-25T09:31:13.389Z,27.52
2019-05-25T09:33:35.452Z,26.86
2019-05-25T09:35:54.003Z,27.04
2019-05-25T09:38:14.301Z,27.41
2019-05-25T09:40:31.472Z,29.86
2019-05-25T09:42:48.522Z,30.73
2019-05-25T09:45:05.559Z,29.50
2019-05-25T09:47:22.595Z,26.90
2019-05-25T09:49:40.253Z,26.39
2019-05-25T09:51:57.609Z,26.80
2019-05-25T09:54:14.828Z,26.62
2019-05-25T09:56:31.541Z,26.72
2019-05-25T09:58:49.421Z,27.36
2019-05-25T10:01:07.846Z,26.36
2019-05-25T10:03:25.113Z,27.37
2019-05-25T10:05:42.559Z,26.45
2019-05-25T10:07:59.457Z,27.19
2019-05-25T10:10:17.005Z,27.19
2019-05-25T10:12:34.222Z,29.88
2019-05-25T10:14:51.345Z,28.22
2019-05-25T10:17:08.452Z,28.04
2019-05-25T10:19:25.458Z,29.51
2019-05-25T10:21:42.457Z,28.50
2019-05-25T10:23:59.465Z,29.84
2019-05-25T10:26:16.504Z,30.00
2019-05-25T10:28:33.282Z,29.32
2019-05-25T10:30:50.286Z,27.40
2019-05-25T10:33:09.454Z,28.07
2019-05-25T10:35:26.458Z,30.51
2019-05-25T10:37:45.992Z,30.92
2019-05-25T10:40:03.408Z,29.83
2019-05-25T10:42:20.513Z,30.35
2019-05-25T10:44:37.410Z,30.35
2019-05-25T10:46:55.352Z,28.51
2019-05-25T10:49:13.971Z,27.11
2019-05-25T10:51:30.654Z,26.63
2019-05-25T10:53:47.502Z,29.62
2019-05-25T10:56:04.671Z,28.54
2019-05-25T10:58:23.045Z,28.21
2019-05-25T11:00:39.838Z,27.50
2019-05-25T11:02:56.611Z,28.35
2019-05-25T11:05:13.663Z,30.43
2019-05-25T11:07:30.534Z,31.97
2019-05-25T11:09:48.863Z,31.90
2019-05-25T11:12:05.563Z,28.77
2019-05-25T11:14:22.287Z,28.14
2019-05-25T11:16:40.600Z,28.57
2019-05-25T11:18:57.455Z,28.22
2019-05-25T11:21:14.501Z,30.63
2019-05-25T11:23:32.301Z,28.81
2019-05-25T11:25:49.246Z,28.51
2019-05-25T11:28:08.461Z,28.74
2019-05-25T11:30:25.258Z,27.22
2019-05-25T11:32:42.092Z,29.45
2019-05-25T11:34:59.071Z,28.95
2019-05-25T11:37:16.654Z,28.22
2019-05-25T11:39:33.490Z,29.25
2019-05-25T11:41:50.455Z,27.88
2019-05-25T11:44:07.469Z,27.35
2019-05-25T11:46:24.765Z,27.77
2019-05-25T11:48:45.985Z,29.21
2019-05-25T11:51:02.459Z,26.89
2019-05-25T11:53:19.493Z,26.89
2019-05-25T11:55:38.330Z,28.20
2019-05-25T11:57:55.250Z,27.46
2019-05-25T12:00:24.253Z,28.29
2019-05-25T12:02:31.626Z,28.66
2019-05-25T12:04:48.349Z,29.46
2019-05-25T12:07:06.477Z,29.38
2019-05-25T12:09:23.441Z,28.46
2019-05-25T12:11:40.401Z,27.72
2019-05-25T12:14:00.374Z,27.67
2019-05-25T12:16:17.316Z,28.31
2019-05-25T12:18:34.384Z,27.87
2019-05-25T12:20:51.336Z,27.92
2019-05-25T12:23:09.631Z,27.29
2019-05-25T12:25:26.829Z,29.01
2019-05-25T12:27:48.877Z,26.58
2019-05-25T12:30:04.219Z,27.83
2019-05-25T12:32:21.382Z,29.36
2019-05-25T12:34:38.355Z,28.27
2019-05-25T12:36:55.296Z,26.85
2019-05-25T12:39:12.310Z,28.89
2019-05-25T12:41:29.393Z,29.18
2019-05-25T12:43:46.259Z,31.11
2019-05-25T12:46:03.327Z,30.66
2019-05-25T12:48:20.378Z,30.23
2019-05-25T12:50:37.243Z,30.48
2019-05-25T12:52:54.254Z,30.09
2019-05-25T12:55:11.293Z,29.33
2019-05-25T12:57:28.341Z,29.08
2019-05-25T12:59:45.324Z,29.38
2019-05-25T13:02:02.438Z,30.30
2019-05-25T13:04:20.476Z,28.21
2019-05-25T13:06:37.488Z,28.76
2019-05-25T13:08:54.532Z,28.56
2019-05-25T13:11:11.511Z,27.58
2019-05-25T13:13:28.455Z,26.38
2019-05-25T13:15:46.490Z,27.40
2019-05-25T13:18:03.865Z,28.86
2019-05-25T13:20:20.619Z,29.78
2019-05-25T13:22:39.596Z,29.71
2019-05-25T13:24:57.538Z,29.79
2019-05-25T13:27:14.975Z,29.15
2019-05-25T13:29:31.882Z,29.35
2019-05-25T13:31:51.236Z,29.16
2019-05-25T13:34:08.446Z,30.84
2019-05-25T13:36:25.495Z,28.25
2019-05-25T13:38:44.501Z,29.44
2019-05-25T13:41:01.443Z,29.52
2019-05-25T13:43:18.480Z,27.68
2019-05-25T13:45:35.630Z,29.39
2019-05-25T13:47:52.589Z,27.77
2019-05-25T13:50:09.510Z,27.79
2019-05-25T13:52:27.557Z,26.27
2019-05-25T13:54:44.327Z,28.14
2019-05-25T13:57:01.319Z,29.28
2019-05-25T13:59:18.543Z,27.36
2019-05-25T14:01:36.263Z,26.58
2019-05-25T14:03:55.862Z,27.64
2019-05-25T14:06:12.066Z,28.03
2019-05-25T14:08:28.988Z,26.92
2019-05-25T14:10:46.079Z,28.75
2019-05-25T14:13:03.700Z,29.13
2019-05-25T14:15:20.525Z,27.87
2019-05-25T14:17:37.464Z,27.87
2019-05-25T14:19:54.523Z,29.53
2019-05-25T14:22:11.590Z,30.28
2019-05-25T14:24:28.794Z,30.28
2019-05-25T14:26:46.056Z,31.49
2019-05-25T14:29:02.762Z,31.45
2019-05-25T14:31:19.818Z,30.61
2019-05-25T14:33:36.963Z,30.61
2019-05-25T14:35:53.647Z,29.92
2019-05-25T14:38:10.548Z,29.17
2019-05-25T14:40:27.642Z,29.17
2019-05-25T14:42:44.350Z,29.03
2019-05-25T14:45:01.634Z,29.01
2019-05-25T14:47:19.857Z,28.35
2019-05-25T14:49:37.318Z,27.37
2019-05-25T14:51:54.583Z,30.16
2019-05-25T14:54:11.609Z,28.36
2019-05-25T14:56:28.459Z,28.44
2019-05-25T14:58:45.721Z,29.77
2019-05-25T15:01:03.482Z,29.58
2019-05-25T15:03:20.418Z,29.58
2019-05-25T15:05:37.489Z,29.52
2019-05-25T15:07:54.758Z,30.76
2019-05-25T15:10:11.496Z,32.12
2019-05-25T15:12:28.353Z,32.12
2019-05-25T15:14:45.282Z,30.64
2019-05-25T15:17:02.459Z,30.22
2019-05-25T15:19:19.477Z,30.56
2019-05-25T15:21:36.593Z,30.42
2019-05-25T15:23:53.514Z,28.74
2019-05-25T15:26:10.286Z,29.72
2019-05-25T15:28:27.297Z,31.48
2019-05-25T15:30:45.267Z,29.90
2019-05-25T15:33:02.508Z,30.33
2019-05-25T15:35:20.622Z,28.63
2019-05-25T15:37:38.028Z,28.69
2019-05-25T15:39:55.060Z,31.60
2019-05-25T15:42:11.831Z,30.70
2019-05-25T15:44:28.692Z,29.31
2019-05-25T15:46:45.900Z,29.23
2019-05-25T15:49:03.415Z,30.06
2019-05-25T15:51:20.467Z,30.32
2019-05-25T15:53:37.444Z,28.90
2019-05-25T15:55:54.534Z,30.36
2019-05-25T15:58:12.675Z,30.10
2019-05-25T16:00:49.379Z,30.10
2019-05-25T16:03:06.347Z,29.46
2019-05-25T16:05:23.283Z,28.25
2019-05-25T16:07:43.280Z,29.46
2019-05-25T16:10:00.479Z,29.04
2019-05-25T16:12:17.535Z,28.91
2019-05-25T16:14:34.332Z,30.01
2019-05-25T16:16:51.293Z,31.52
2019-05-25T16:19:08.252Z,31.97
2019-05-25T16:21:25.495Z,30.67
2019-05-25T16:23:42.728Z,31.47
2019-05-25T16:25:59.472Z,32.43
2019-05-25T16:28:16.457Z,32.43
2019-05-25T16:30:33.527Z,30.68
2019-05-25T16:35:10.098Z,30.77
2019-05-25T16:37:27.338Z,29.38
2019-05-25T16:39:44.635Z,28.74
2019-05-25T16:42:01.495Z,30.44
2019-05-25T16:44:18.560Z,29.68
2019-05-25T16:46:37.323Z,29.24
2019-05-25T16:48:54.447Z,28.71
2019-05-25T16:51:11.836Z,29.32
2019-05-25T16:53:28.687Z,27.52
2019-05-25T16:55:46.056Z,27.29
2019-05-25T16:58:03.321Z,27.29
2019-05-25T17:00:27.352Z,27.13
2019-05-25T17:02:44.775Z,27.90
2019-05-25T17:05:04.016Z,27.38
2019-05-25T17:07:20.766Z,27.38
2019-05-25T17:09:37.696Z,27.10
2019-05-25T17:11:54.617Z,27.10
2019-05-25T17:14:11.318Z,28.72
2019-05-25T17:16:29.593Z,27.05
2019-05-25T17:18:46.448Z,26.40
2019-05-25T17:21:03.563Z,26.52
2019-05-25T17:23:20.331Z,27.86
2019-05-25T17:25:37.378Z,25.72
2019-05-25T17:27:54.625Z,25.99
2019-05-25T17:30:13.044Z,25.38
2019-05-25T17:32:30.350Z,25.38
2019-05-25T17:34:47.313Z,26.19
2019-05-25T17:37:04.496Z,25.68
2019-05-25T17:39:24.269Z,26.36
2019-05-25T17:41:41.496Z,25.04
2019-05-25T17:43:58.370Z,25.02
2019-05-25T17:46:15.517Z,25.26
2019-05-25T17:48:32.806Z,25.57
2019-05-25T17:50:50.334Z,26.61
2019-05-25T17:53:07.380Z,25.64
2019-05-25T17:55:24.355Z,24.97
2019-05-25T17:57:41.436Z,24.94
2019-05-25T17:59:59.618Z,25.27
2019-05-25T18:02:17.078Z,24.35
2019-05-25T18:04:34.272Z,24.71
2019-05-25T18:06:51.750Z,24.56
2019-05-25T18:09:09.327Z,23.33
2019-05-25T18:11:26.868Z,23.29
2019-05-25T18:13:44.605Z,23.56
2019-05-25T18:16:01.617Z,23.65
2019-05-25T18:18:20.522Z,23.65
2019-05-25T18:20:38.138Z,23.77
2019-05-25T18:22:55.268Z,24.03
2019-05-25T18:25:18.248Z,23.86
2019-05-25T18:30:05.273Z,23.32
2019-05-25T18:32:22.305Z,24.00
2019-05-25T18:34:39.295Z,24.03
2019-05-25T18:36:56.456Z,23.25
2019-05-25T18:39:13.980Z,23.28
2019-05-25T18:41:30.820Z,23.46
2019-05-25T18:43:47.874Z,23.92
2019-05-25T18:46:05.308Z,23.92
2019-05-25T18:48:22.357Z,23.41
2019-05-25T18:50:39.483Z,23.62
2019-05-25T18:52:56.531Z,23.05
2019-05-25T18:55:14.873Z,23.19
2019-05-25T18:57:31.488Z,22.82
2019-05-25T18:59:48.486Z,22.49
2019-05-25T19:02:05.482Z,22.24
2019-05-25T19:04:37.057Z,23.04
2019-05-25T19:06:43.349Z,22.57
2019-05-25T19:09:01.081Z,22.87
2019-05-25T19:11:19.568Z,23.15
2019-05-25T19:13:38.074Z,23.22
2019-05-25T19:15:55.889Z,22.55
2019-05-25T19:18:14.357Z,22.50
2019-05-25T19:20:31.612Z,22.18
2019-05-25T19:22:48.597Z,23.06
2019-05-25T19:25:05.812Z,23.08
2019-05-25T19:27:23.692Z,22.75
2019-05-25T19:29:40.859Z,23.02
2019-05-25T19:31:59.905Z,23.02
2019-05-25T19:34:19.082Z,23.03
2019-05-25T19:36:36.981Z,21.78
2019-05-25T19:38:55.367Z,22.48
2019-05-25T19:41:15.782Z,22.77
2019-05-25T19:43:32.828Z,22.63
2019-05-25T19:45:50.242Z,22.63
2019-05-25T19:48:07.258Z,22.04
2019-05-25T19:50:25.489Z,21.15
2019-05-25T19:52:43.671Z,22.02
2019-05-25T19:55:00.475Z,21.97
2019-05-25T19:57:17.459Z,21.97
2019-05-25T19:59:34.557Z,21.90
2019-05-25T20:01:51.550Z,21.85
2019-05-25T20:04:08.603Z,21.64
2019-05-25T20:06:25.678Z,20.76
2019-05-25T20:08:42.481Z,20.83
2019-05-25T20:10:59.441Z,21.38
2019-05-25T20:13:16.577Z,21.37
2019-05-25T20:15:34.055Z,21.20
2019-05-25T20:17:50.962Z,21.24
2019-05-25T20:20:09.298Z,21.19
2019-05-25T20:22:26.698Z,21.25
2019-05-25T20:24:43.468Z,20.75
2019-05-25T20:27:01.727Z,20.75
2019-05-25T20:29:18.691Z,21.02
2019-05-25T20:31:35.517Z,20.88
2019-05-25T20:33:52.398Z,19.84
2019-05-25T20:36:09.399Z,20.64
2019-05-25T20:38:26.392Z,20.75
2019-05-25T20:40:43.519Z,20.40
2019-05-25T20:43:00.368Z,19.57
2019-05-25T20:45:19.287Z,20.30
2019-05-25T20:47:36.257Z,20.44
2019-05-25T20:49:54.094Z,20.61
2019-05-25T20:52:12.916Z,20.46
2019-05-25T20:54:31.490Z,20.48
2019-05-25T20:56:48.492Z,20.25
2019-05-25T20:59:07.280Z,19.72
2019-05-25T21:01:26.770Z,20.15
2019-05-25T21:03:43.660Z,19.95
2019-05-25T21:06:00.417Z,20.14
2019-05-25T21:08:17.394Z,20.14
2019-05-25T21:10:35.502Z,20.38
2019-05-25T21:12:53.584Z,20.31
2019-05-25T21:15:10.682Z,20.07
2019-05-25T21:17:27.336Z,19.99
2019-05-25T21:19:44.323Z,20.19
2019-05-25T21:22:01.454Z,20.36
2019-05-25T21:24:18.525Z,19.73
2019-05-25T21:26:35.546Z,19.48
2019-05-25T21:28:52.451Z,20.09
2019-05-25T21:31:09.447Z,20.09
2019-05-25T21:33:26.447Z,20.35
2019-05-25T21:35:44.500Z,20.34
2019-05-25T21:38:01.357Z,20.54
2019-05-25T21:40:18.438Z,20.46
2019-05-25T21:42:35.450Z,20.51
2019-05-25T21:44:52.428Z,20.60
2019-05-25T21:47:09.423Z,20.68
2019-05-25T22:13:36.019Z,19.65
2019-05-25T22:15:52.832Z,20.22
2019-05-25T22:18:09.605Z,20.10
2019-05-25T22:20:26.457Z,20.30
2019-05-25T22:22:45.248Z,20.26
2019-05-25T22:25:02.496Z,20.43
2019-05-25T22:27:19.516Z,20.26
2019-05-25T22:29:36.549Z,20.48
2019-05-25T22:31:53.473Z,20.68
2019-05-25T22:34:10.331Z,20.81
2019-05-25T22:36:39.840Z,20.67
2019-05-25T22:38:45.625Z,20.45
2019-05-25T22:41:02.414Z,20.46
2019-05-25T22:43:19.561Z,19.94
2019-05-25T22:45:36.315Z,19.17
2019-05-25T22:47:53.255Z,19.33
2019-05-25T22:50:10.973Z,20.33
2019-05-25T22:52:28.268Z,20.38
2019-05-25T22:54:46.842Z,20.63
2019-05-25T22:57:03.441Z,20.84
2019-05-25T22:59:20.460Z,20.84
2019-05-25T23:01:37.472Z,20.92
2019-05-25T23:03:54.307Z,20.63
2019-05-25T23:06:11.463Z,20.45
2019-05-25T23:08:28.519Z,20.40
2019-05-25T23:10:45.493Z,20.71
2019-05-25T23:13:03.127Z,20.60
2019-05-25T23:15:19.926Z,20.34
2019-05-25T23:17:36.471Z,20.33
2019-05-25T23:19:53.334Z,20.34
2019-05-25T23:22:10.251Z,20.27
2019-05-25T23:24:27.269Z,20.02
2019-05-25T23:26:44.226Z,19.85
2019-05-25T23:29:01.078Z,19.97
2019-05-25T23:31:17.679Z,19.86
2019-05-25T23:33:34.541Z,19.84
2019-05-25T23:35:51.372Z,19.78
2019-05-25T23:38:08.248Z,19.70
2019-05-25T23:40:25.400Z,19.54
2019-05-25T23:42:42.328Z,19.48
2019-05-25T23:44:59.505Z,19.48
2019-05-25T23:47:16.442Z,18.41
2019-05-25T23:49:33.589Z,19.15
2019-05-25T23:51:50.353Z,18.64
2019-05-25T23:54:07.298Z,18.89
2019-05-25T23:56:24.275Z,18.87
2019-05-25T23:58:41.232Z,19.02
